createdAt,value
2023-03-06T00:01:50.433Z,99881.75
2023-03-06T00:03:52.251Z,99889.88
2023-03-06T00:05:54.968Z,99879.88
2023-03-06T00:07:56.703Z,99902.94
2023-03-06T00:09:58.123Z,99905.72
2023-03-06T00:11:59.650Z,99899.66
2023-03-06T00:14:01.179Z,99900.09
2023-03-06T00:16:02.628Z,99900.56
2023-03-06T00:18:05.931Z,99896.09
2023-03-06T00:20:08.632Z,99906.81
2023-03-06T00:22:13.788Z,99877.31
2023-03-06T00:24:15.752Z,99897.44
2023-03-06T00:26:17.339Z,99873.53
2023-03-06T00:28:18.825Z,99884.03
2023-03-06T00:30:22.895Z,99889.19
2023-03-06T00:32:25.563Z,99869.53
2023-03-06T00:34:26.968Z,99874.53
2023-03-06T00:36:28.514Z,99892.88
2023-03-06T00:38:30.011Z,99879.31
2023-03-06T00:40:31.433Z,99887.03
2023-03-06T00:42:33.008Z,99891.78
2023-03-06T00:44:34.536Z,99897.88
2023-03-06T00:46:35.965Z,99890.25
2023-03-06T00:48:37.702Z,99893.38
2023-03-06T00:50:39.222Z,99896.34
2023-03-06T00:52:40.660Z,99896.81
2023-03-06T00:54:42.335Z,99867.63
2023-03-06T00:56:43.882Z,99879.72
2023-03-06T00:58:45.610Z,99876.59
2023-03-06T01:00:47.145Z,99882.44
2023-03-06T01:02:48.655Z,99874.72
2023-03-06T01:04:50.196Z,99875.59
2023-03-06T01:06:52.053Z,99878.88
2023-03-06T01:08:53.569Z,99878.38
2023-03-06T01:10:55.008Z,99861.63
2023-03-06T01:12:56.983Z,99867.59
2023-03-06T01:14:58.612Z,99862.06
2023-03-06T01:17:00.116Z,99868.50
2023-03-06T01:19:03.421Z,99868.00
2023-03-06T01:21:05.930Z,99868.19
2023-03-06T01:23:07.367Z,99854.38
2023-03-06T01:25:09.482Z,99835.91
2023-03-06T01:27:11.025Z,99865.69
2023-03-06T01:29:12.484Z,99865.50
2023-03-06T01:31:14.009Z,99842.72
2023-03-06T01:33:15.654Z,99876.50
2023-03-06T01:35:17.281Z,99868.03
2023-03-06T01:37:19.018Z,99855.53
2023-03-06T01:39:20.543Z,99868.19
2023-03-06T01:41:22.046Z,99825.88
2023-03-06T01:43:26.338Z,99864.25
2023-03-06T01:45:27.732Z,99867.00
2023-03-06T01:47:29.417Z,99852.44
2023-03-06T01:49:39.029Z,99867.13
2023-03-06T01:52:03.689Z,99865.59
2023-03-06T01:54:11.383Z,99867.59
2023-03-06T01:56:13.900Z,99858.63
2023-03-06T01:58:18.459Z,99861.53
2023-03-06T02:00:25.226Z,99832.38
2023-03-06T02:02:26.878Z,99874.25
2023-03-06T02:04:29.567Z,99840.91
2023-03-06T02:06:30.996Z,99861.63
2023-03-06T02:08:33.370Z,99844.88
2023-03-06T02:10:34.892Z,99831.47
2023-03-06T02:12:36.408Z,99811.31
2023-03-06T02:14:39.516Z,99848.94
2023-03-06T02:16:42.252Z,99840.25
2023-03-06T02:18:45.617Z,99835.75
2023-03-06T02:20:51.922Z,99857.91
2023-03-06T02:23:12.221Z,99856.25
2023-03-06T02:25:32.452Z,99857.28
2023-03-06T02:27:34.290Z,99860.06
2023-03-06T02:29:35.695Z,99855.03
2023-03-06T02:31:37.123Z,99840.78
2023-03-06T02:33:38.593Z,99830.88
2023-03-06T02:35:43.576Z,99853.34
2023-03-06T02:37:45.524Z,99851.28
2023-03-06T02:39:52.073Z,99859.41
2023-03-06T02:41:53.966Z,99854.78
2023-03-06T02:43:55.406Z,99858.97
2023-03-06T02:45:57.465Z,99840.84
2023-03-06T02:47:58.984Z,99858.97
2023-03-06T02:50:00.400Z,99843.28
2023-03-06T02:52:01.902Z,99845.63
2023-03-06T02:54:03.492Z,99838.03
2023-03-06T02:56:05.147Z,99849.84
2023-03-06T02:58:07.049Z,99838.94
2023-03-06T03:00:09.766Z,99829.66
2023-03-06T03:02:11.200Z,99843.06
2023-03-06T03:04:12.868Z,99847.38
2023-03-06T03:06:14.404Z,99825.75
2023-03-06T03:08:15.839Z,99823.72
2023-03-06T03:10:17.308Z,99843.22
2023-03-06T03:12:18.798Z,99847.38
2023-03-06T03:14:20.286Z,99818.00
2023-03-06T03:16:21.820Z,99842.38
2023-03-06T03:18:23.337Z,99840.56
2023-03-06T03:20:24.796Z,99825.47
2023-03-06T03:22:26.451Z,99844.91
2023-03-06T03:24:28.046Z,99822.06
2023-03-06T03:26:29.524Z,99818.31
2023-03-06T03:28:31.196Z,99837.00
2023-03-06T03:30:33.194Z,99835.97
2023-03-06T03:32:34.672Z,99831.72
2023-03-06T03:34:36.238Z,99835.19
2023-03-06T03:36:37.708Z,99793.03
2023-03-06T03:38:39.155Z,99829.13
2023-03-06T03:40:40.823Z,99830.25
2023-03-06T03:42:42.332Z,99803.91
2023-03-06T03:44:43.875Z,99828.69
2023-03-06T03:46:45.458Z,99825.13
2023-03-06T03:48:47.225Z,99821.69
2023-03-06T03:50:48.657Z,99796.94
2023-03-06T03:52:50.086Z,99818.09
2023-03-06T03:54:51.480Z,99811.06
2023-03-06T03:56:52.864Z,99819.25
2023-03-06T03:58:54.511Z,99800.38
2023-03-06T04:00:56.131Z,99822.72
2023-03-06T04:02:57.542Z,99792.19
2023-03-06T04:04:59.152Z,99802.53
2023-03-06T04:07:00.599Z,99807.81
2023-03-06T04:09:02.022Z,99809.44
2023-03-06T04:11:03.746Z,99815.53
2023-03-06T04:13:07.514Z,99804.34
2023-03-06T04:15:10.557Z,99807.41
2023-03-06T04:17:12.029Z,99803.78
2023-03-06T04:19:13.527Z,99804.00
2023-03-06T04:21:14.939Z,99803.75
2023-03-06T04:23:17.653Z,99761.94
2023-03-06T04:25:19.053Z,99792.03
2023-03-06T04:27:20.498Z,99800.53
2023-03-06T04:29:22.014Z,99797.13
2023-03-06T04:31:23.555Z,99781.47
2023-03-06T04:33:25.031Z,99801.28
2023-03-06T04:35:26.917Z,99793.59
2023-03-06T04:37:28.370Z,99798.66
2023-03-06T04:39:29.772Z,99790.56
2023-03-06T04:41:31.336Z,99793.06
2023-03-06T04:43:33.088Z,99790.63
2023-03-06T04:45:35.070Z,99776.31
2023-03-06T04:47:37.068Z,99787.97
2023-03-06T04:49:38.601Z,99775.53
2023-03-06T04:51:40.004Z,99773.31
2023-03-06T04:53:41.555Z,99788.31
2023-03-06T04:55:42.975Z,99790.84
2023-03-06T04:57:46.801Z,99795.34
2023-03-06T04:59:48.556Z,99789.03
2023-03-06T05:01:50.012Z,99785.84
2023-03-06T05:03:51.455Z,99778.94
2023-03-06T05:05:52.905Z,99770.19
2023-03-06T05:07:54.580Z,99785.91
2023-03-06T05:09:56.196Z,99784.59
2023-03-06T05:11:57.578Z,99730.69
2023-03-06T05:13:58.973Z,99787.22
2023-03-06T05:16:05.321Z,99765.84
2023-03-06T05:18:06.864Z,99785.31
2023-03-06T05:20:10.563Z,99780.38
2023-03-06T05:22:12.067Z,99778.75
2023-03-06T05:24:13.492Z,99770.84
2023-03-06T05:26:15.548Z,99754.94
2023-03-06T05:28:16.963Z,99769.94
2023-03-06T05:30:18.454Z,99776.94
2023-03-06T05:32:20.215Z,99764.09
2023-03-06T05:34:21.696Z,99774.47
2023-03-06T05:36:23.175Z,99778.81
2023-03-06T05:38:24.721Z,99775.03
2023-03-06T05:40:26.441Z,99781.16
2023-03-06T05:42:30.734Z,99771.97
2023-03-06T05:44:33.195Z,99779.38
2023-03-06T05:46:34.567Z,99754.28
2023-03-06T05:48:36.589Z,99782.16
2023-03-06T05:50:38.556Z,99759.66
2023-03-06T05:52:40.211Z,99729.91
2023-03-06T05:54:41.600Z,99769.03
2023-03-06T05:56:43.242Z,99781.03
2023-03-06T05:58:44.740Z,99781.84
2023-03-06T06:00:46.128Z,99768.91
2023-03-06T06:02:47.649Z,99773.31
2023-03-06T06:04:49.093Z,99773.53
2023-03-06T06:06:59.320Z,99764.19
2023-03-06T06:09:00.720Z,99763.06
2023-03-06T06:11:04.911Z,99766.63
2023-03-06T06:13:06.840Z,99765.19
2023-03-06T06:15:08.739Z,99771.19
2023-03-06T06:17:10.216Z,99758.59
2023-03-06T06:19:11.817Z,99754.84
2023-03-06T06:21:14.420Z,99750.56
2023-03-06T06:23:15.872Z,99759.53
2023-03-06T06:25:17.407Z,99761.75
2023-03-06T06:27:18.821Z,99748.22
2023-03-06T06:29:20.952Z,99759.75
2023-03-06T06:31:22.507Z,99753.81
2023-03-06T06:33:24.257Z,99761.41
2023-03-06T06:35:26.626Z,99764.00
2023-03-06T06:37:28.052Z,99766.34
2023-03-06T06:39:29.805Z,99737.81
2023-03-06T06:41:50.723Z,99763.75
2023-03-06T06:43:53.092Z,99761.25
2023-03-06T06:46:08.885Z,99761.50
2023-03-06T06:48:17.540Z,99765.34
2023-03-06T06:50:19.548Z,99767.25
2023-03-06T06:52:22.052Z,99751.53
2023-03-06T06:54:23.689Z,99760.63
2023-03-06T06:56:25.154Z,99772.03
2023-03-06T06:58:26.756Z,99736.28
2023-03-06T07:00:28.418Z,99762.91
2023-03-06T07:02:29.867Z,99749.22
2023-03-06T07:04:31.379Z,99763.56
2023-03-06T07:06:32.825Z,99758.56
2023-03-06T07:08:35.218Z,99760.97
2023-03-06T07:10:37.698Z,99760.56
2023-03-06T07:12:39.541Z,99757.28
2023-03-06T07:14:40.946Z,99750.88
2023-03-06T07:16:42.466Z,99756.84
2023-03-06T07:18:44.495Z,99756.66
2023-03-06T07:20:45.875Z,99733.59
2023-03-06T07:22:51.377Z,99750.88
2023-03-06T07:24:53.180Z,99735.56
2023-03-06T07:26:54.818Z,99743.31
2023-03-06T07:28:56.461Z,99739.78
2023-03-06T07:30:57.960Z,99749.25
2023-03-06T07:32:59.840Z,99747.78
2023-03-06T07:35:18.973Z,99749.69
2023-03-06T07:37:21.412Z,99739.03
2023-03-06T07:39:22.865Z,99754.03
2023-03-06T07:41:24.304Z,99745.19
2023-03-06T07:43:25.693Z,99758.03
2023-03-06T07:45:27.319Z,99738.94
2023-03-06T07:47:28.745Z,99755.41
2023-03-06T07:49:30.172Z,99696.50
2023-03-06T07:51:31.642Z,99744.84
2023-03-06T07:53:34.128Z,99737.94
2023-03-06T07:55:35.550Z,99737.59
2023-03-06T07:57:38.039Z,99750.75
2023-03-06T07:59:39.648Z,99737.34
2023-03-06T08:01:41.068Z,99744.28
2023-03-06T08:03:42.796Z,99746.06
2023-03-06T08:05:44.870Z,99745.03
2023-03-06T08:07:46.277Z,99746.31
2023-03-06T08:09:48.627Z,99750.47
2023-03-06T08:11:50.097Z,99735.53
2023-03-06T08:13:52.248Z,99747.03
2023-03-06T08:15:54.619Z,99744.44
2023-03-06T08:17:56.125Z,99739.84
2023-03-06T08:19:57.643Z,99743.00
2023-03-06T08:21:59.302Z,99742.03
2023-03-06T08:24:00.901Z,99719.19
2023-03-06T08:26:05.405Z,99735.13
2023-03-06T08:28:06.914Z,99725.44
2023-03-06T08:30:09.124Z,99736.66
2023-03-06T08:32:11.912Z,99733.69
2023-03-06T08:34:17.817Z,99734.75
2023-03-06T08:36:19.478Z,99736.84
2023-03-06T08:38:20.882Z,99716.44
2023-03-06T08:40:22.362Z,99735.63
2023-03-06T08:42:23.955Z,99740.19
2023-03-06T08:44:25.372Z,99717.19
2023-03-06T08:46:29.244Z,99735.09
2023-03-06T08:48:30.962Z,99730.81
2023-03-06T08:50:32.420Z,99731.75
2023-03-06T08:52:33.919Z,99737.72
2023-03-06T08:54:35.800Z,99736.75
2023-03-06T08:56:37.271Z,99726.91
2023-03-06T08:58:38.909Z,99736.44
2023-03-06T09:00:40.603Z,99733.03
2023-03-06T09:02:42.136Z,99713.97
2023-03-06T09:04:43.624Z,99733.16
2023-03-06T09:06:45.525Z,99733.53
2023-03-06T09:08:46.897Z,99733.81
2023-03-06T09:10:48.772Z,99725.06
2023-03-06T09:12:53.144Z,99718.25
2023-03-06T09:14:55.893Z,99720.78
2023-03-06T09:16:57.518Z,99685.19
2023-03-06T09:18:59.123Z,99713.00
2023-03-06T09:21:00.984Z,99687.00
2023-03-06T09:23:02.586Z,99710.97
2023-03-06T09:25:05.769Z,99712.34
2023-03-06T09:27:07.229Z,99718.84
2023-03-06T09:29:08.875Z,99707.47
2023-03-06T09:31:13.306Z,99726.09
2023-03-06T09:33:15.278Z,99715.41
2023-03-06T09:35:17.201Z,99713.25
2023-03-06T09:37:19.197Z,99725.84
2023-03-06T09:39:20.584Z,99723.97
2023-03-06T09:41:24.808Z,99725.63
2023-03-06T09:43:32.251Z,99712.44
2023-03-06T09:45:36.931Z,99713.34
2023-03-06T09:47:45.131Z,99716.00
2023-03-06T09:50:04.785Z,99715.03
2023-03-06T09:52:42.173Z,99706.38
2023-03-06T09:54:55.516Z,99711.50
2023-03-06T09:56:57.314Z,99707.69
2023-03-06T09:59:22.865Z,99704.72
2023-03-06T10:01:26.041Z,99708.84
2023-03-06T10:03:48.521Z,99700.53
2023-03-06T10:06:17.997Z,99699.25
2023-03-06T10:08:22.371Z,99700.34
2023-03-06T10:10:27.904Z,99698.19
2023-03-06T10:12:35.206Z,99688.78
2023-03-06T10:14:43.246Z,99685.22
2023-03-06T10:16:44.877Z,99694.47
2023-03-06T10:18:46.367Z,99687.22
2023-03-06T10:20:58.309Z,99694.72
2023-03-06T10:23:39.651Z,99663.47
2023-03-06T10:26:03.454Z,99682.84
2023-03-06T10:28:18.261Z,99675.94
2023-03-06T10:30:37.786Z,99672.28
2023-03-06T10:32:52.941Z,99669.19
2023-03-06T10:34:59.291Z,99668.81
2023-03-06T10:37:13.165Z,99652.28
2023-03-06T10:39:21.275Z,99660.00
2023-03-06T10:41:24.806Z,99665.25
2023-03-06T10:43:26.481Z,99659.75
2023-03-06T10:45:28.718Z,99644.53
2023-03-06T10:47:33.106Z,99655.63
2023-03-06T10:49:37.094Z,99666.69
2023-03-06T10:51:38.705Z,99663.00
2023-03-06T10:53:56.632Z,99659.19
2023-03-06T10:56:01.750Z,99649.59
2023-03-06T10:58:19.907Z,99648.50
2023-03-06T11:00:30.397Z,99645.75
2023-03-06T11:02:34.549Z,99641.25
2023-03-06T11:04:36.966Z,99635.13
2023-03-06T11:06:38.372Z,99641.09
2023-03-06T11:08:41.919Z,99642.63
2023-03-06T11:10:55.802Z,99625.19
2023-03-06T11:13:05.770Z,99635.06
2023-03-06T11:15:23.333Z,99632.69
2023-03-06T11:17:30.259Z,99638.41
2023-03-06T11:19:32.362Z,99634.34
2023-03-06T11:21:35.730Z,99634.22
2023-03-06T11:23:45.835Z,99621.03
2023-03-06T11:25:56.436Z,99627.25
2023-03-06T11:28:03.650Z,99602.38
2023-03-06T11:30:35.045Z,99619.72
2023-03-06T11:32:47.348Z,99619.00
2023-03-06T11:34:57.409Z,99585.03
2023-03-06T11:37:08.456Z,99604.78
2023-03-06T11:39:28.143Z,99600.84
2023-03-06T11:41:52.793Z,99604.94
2023-03-06T11:44:17.299Z,99597.66
2023-03-06T11:46:37.549Z,99604.56
2023-03-06T11:48:48.359Z,99589.44
2023-03-06T11:50:59.732Z,99597.84
2023-03-06T11:53:04.348Z,99596.44
2023-03-06T11:55:08.560Z,99598.78
2023-03-06T11:57:17.863Z,99603.09
2023-03-06T11:59:46.364Z,99602.38
2023-03-06T12:02:27.692Z,99604.31
2023-03-06T12:04:53.730Z,99611.06
2023-03-06T12:07:19.482Z,99542.47
2023-03-06T12:09:33.822Z,99571.97
2023-03-06T12:12:11.919Z,99589.88
2023-03-06T12:14:40.863Z,99587.97
2023-03-06T12:17:04.243Z,99578.75
2023-03-06T12:19:30.006Z,99583.97
2023-03-06T12:21:46.468Z,99589.06
2023-03-06T12:24:09.779Z,99588.25
2023-03-06T12:26:36.231Z,99585.88
2023-03-06T12:28:45.983Z,99581.47
2023-03-06T12:31:02.661Z,99583.25
2023-03-06T12:33:19.289Z,99583.31
2023-03-06T12:35:44.638Z,99566.84
2023-03-06T12:37:58.029Z,99581.44
2023-03-06T12:40:40.832Z,99584.53
2023-03-06T12:43:03.119Z,99583.69
2023-03-06T12:45:30.412Z,99595.38
2023-03-06T12:47:37.855Z,99592.38
2023-03-06T12:49:43.622Z,99590.00
2023-03-06T12:51:45.957Z,99588.84
2023-03-06T12:53:49.761Z,99584.91
2023-03-06T12:55:51.908Z,99583.94
2023-03-06T12:57:53.642Z,99587.38
2023-03-06T12:59:55.115Z,99576.56
2023-03-06T13:02:11.820Z,99563.41
2023-03-06T13:04:35.185Z,99586.25
2023-03-06T13:06:50.835Z,99589.69
2023-03-06T13:09:20.277Z,99586.69
2023-03-06T13:11:56.220Z,99581.41
2023-03-06T13:13:57.705Z,99559.56
2023-03-06T13:16:12.344Z,99581.09
2023-03-06T13:18:23.348Z,99578.03
2023-03-06T13:20:35.138Z,99577.53
2023-03-06T13:22:37.099Z,99575.84
2023-03-06T13:24:38.611Z,99579.63
2023-03-06T13:26:39.990Z,99571.56
2023-03-06T13:28:43.266Z,99574.53
2023-03-06T13:30:45.790Z,99570.97
2023-03-06T13:32:48.556Z,99559.00
2023-03-06T13:34:50.188Z,99574.63
2023-03-06T13:36:51.949Z,99566.75
2023-03-06T13:39:12.951Z,99569.13
2023-03-06T13:41:20.697Z,99565.94
2023-03-06T13:43:22.334Z,99568.66
2023-03-06T13:45:34.382Z,99564.88
2023-03-06T13:48:05.805Z,99564.97
2023-03-06T13:50:12.952Z,99563.00
2023-03-06T13:52:54.245Z,99565.06
2023-03-06T13:55:03.619Z,99555.06
2023-03-06T13:57:25.513Z,99565.50
2023-03-06T14:00:08.093Z,99538.81
2023-03-06T14:02:49.466Z,99554.94
2023-03-06T14:04:57.510Z,99551.34
2023-03-06T14:06:58.975Z,99554.53
2023-03-06T14:09:03.813Z,99532.41
2023-03-06T14:11:20.640Z,99527.75
2023-03-06T14:13:35.110Z,99547.72
2023-03-06T14:15:44.866Z,99544.81
2023-03-06T14:18:14.615Z,99551.09
2023-03-06T14:20:18.796Z,99547.59
2023-03-06T14:22:24.674Z,99552.03
2023-03-06T14:24:36.677Z,99530.06
2023-03-06T14:26:45.420Z,99535.25
2023-03-06T14:28:52.808Z,99542.72
2023-03-06T14:30:55.790Z,99547.31
2023-03-06T14:32:57.324Z,99547.19
2023-03-06T14:34:58.888Z,99544.97
2023-03-06T14:37:03.105Z,99546.06
2023-03-06T14:39:28.662Z,99546.34
2023-03-06T14:41:33.510Z,99537.88
2023-03-06T14:43:34.938Z,99525.31
2023-03-06T14:45:36.538Z,99526.06
2023-03-06T14:47:38.212Z,99533.81
2023-03-06T14:49:39.611Z,99541.97
2023-03-06T14:51:44.235Z,99524.63
2023-03-06T14:53:48.632Z,99526.97
2023-03-06T14:56:00.004Z,99534.97
2023-03-06T14:58:07.764Z,99530.00
2023-03-06T15:00:18.114Z,99529.53
2023-03-06T15:02:23.004Z,99534.03
2023-03-06T15:04:44.960Z,99526.88
2023-03-06T15:06:46.608Z,99524.09
2023-03-06T15:09:02.688Z,99461.91
2023-03-06T15:11:06.926Z,99526.06
2023-03-06T15:13:21.134Z,99523.84
2023-03-06T15:15:25.643Z,99527.00
2023-03-06T15:17:27.083Z,99531.28
2023-03-06T15:19:28.490Z,99532.47
2023-03-06T15:21:38.152Z,99533.25
2023-03-06T15:23:42.450Z,99536.44
2023-03-06T15:25:56.177Z,99535.09
2023-03-06T15:28:03.368Z,99526.16
2023-03-06T15:30:26.802Z,99519.81
2023-03-06T15:32:32.651Z,99527.81
2023-03-06T15:34:34.139Z,99500.72
2023-03-06T15:36:43.497Z,99531.13
2023-03-06T15:38:46.420Z,99514.69
2023-03-06T15:40:59.330Z,99533.00
2023-03-06T15:43:00.974Z,99531.31
2023-03-06T15:45:16.789Z,99533.81
2023-03-06T15:47:18.959Z,99532.84
2023-03-06T15:49:20.445Z,99531.75
2023-03-06T15:51:21.986Z,99532.16
2023-03-06T15:53:23.611Z,99527.31
2023-03-06T15:55:26.088Z,99533.47
2023-03-06T15:57:28.177Z,99533.28
2023-03-06T15:59:30.676Z,99532.88
2023-03-06T16:01:32.207Z,99532.72
2023-03-06T16:03:33.777Z,99534.59
2023-03-06T16:05:35.291Z,99534.59
2023-03-06T16:07:36.767Z,99517.63
2023-03-06T16:09:38.313Z,99529.88
2023-03-06T16:11:43.948Z,99530.94
2023-03-06T16:13:46.137Z,99529.28
2023-03-06T16:15:50.250Z,99533.38
2023-03-06T16:17:51.723Z,99523.78
2023-03-06T16:19:53.198Z,99531.97
2023-03-06T16:21:56.178Z,99533.38
2023-03-06T16:23:57.886Z,99516.78
2023-03-06T16:25:59.455Z,99520.34
2023-03-06T16:28:02.061Z,99510.28
2023-03-06T16:30:04.725Z,99528.78
2023-03-06T16:32:06.648Z,99530.69
2023-03-06T16:34:08.075Z,99536.13
2023-03-06T16:36:13.264Z,99532.09
2023-03-06T16:38:14.862Z,99514.16
2023-03-06T16:40:26.086Z,99533.38
2023-03-06T16:42:27.828Z,99532.97
2023-03-06T16:44:29.298Z,99538.69
2023-03-06T16:46:30.831Z,99520.00
2023-03-06T16:48:32.711Z,99526.91
2023-03-06T16:50:38.767Z,99537.53
2023-03-06T16:52:40.151Z,99526.66
2023-03-06T16:54:43.622Z,99528.56
2023-03-06T16:56:46.407Z,99528.84
2023-03-06T16:58:48.249Z,99538.69
2023-03-06T17:00:49.865Z,99521.75
2023-03-06T17:02:52.570Z,99540.41
2023-03-06T17:04:54.008Z,99539.34
2023-03-06T17:06:55.512Z,99543.13
2023-03-06T17:08:57.166Z,99534.53
2023-03-06T17:10:58.594Z,99536.63
2023-03-06T17:13:00.317Z,99499.25
2023-03-06T17:15:02.534Z,99514.66
2023-03-06T17:17:04.227Z,99526.63
2023-03-06T17:19:06.459Z,99533.63
2023-03-06T17:21:08.627Z,99524.09
2023-03-06T17:23:10.027Z,99533.03
2023-03-06T17:25:11.645Z,99533.09
2023-03-06T17:27:13.099Z,99536.63
2023-03-06T17:29:15.103Z,99541.09
2023-03-06T17:31:19.247Z,99538.41
2023-03-06T17:33:20.767Z,99538.13
2023-03-06T17:35:22.191Z,99529.09
2023-03-06T17:37:23.851Z,99520.44
2023-03-06T17:39:25.472Z,99545.38
2023-03-06T17:41:27.086Z,99532.13
2023-03-06T17:43:28.708Z,99525.34
2023-03-06T17:45:30.195Z,99537.72
2023-03-06T17:47:31.634Z,99531.69
2023-03-06T17:49:33.227Z,99518.31
2023-03-06T17:51:34.825Z,99539.59
2023-03-06T17:53:37.565Z,99537.13
2023-03-06T17:55:39.135Z,99540.34
2023-03-06T17:57:40.604Z,99539.06
2023-03-06T17:59:42.012Z,99533.94
2023-03-06T18:01:43.535Z,99533.25
2023-03-06T18:03:47.369Z,99527.44
2023-03-06T18:05:59.061Z,99538.69
2023-03-06T18:08:00.614Z,99537.56
2023-03-06T18:10:02.205Z,99538.41
2023-03-06T18:12:03.892Z,99536.00
2023-03-06T18:14:05.655Z,99537.03
2023-03-06T18:16:09.125Z,99536.34
2023-03-06T18:18:10.549Z,99532.91
2023-03-06T18:20:12.438Z,99534.06
2023-03-06T18:22:14.132Z,99526.38
2023-03-06T18:24:15.517Z,99530.53
2023-03-06T18:26:20.225Z,99493.09
2023-03-06T18:28:21.834Z,99544.75
2023-03-06T18:30:23.420Z,99541.41
2023-03-06T18:32:25.151Z,99520.06
2023-03-06T18:34:26.710Z,99540.47
2023-03-06T18:36:31.390Z,99538.81
2023-03-06T18:38:33.161Z,99543.09
2023-03-06T18:40:34.627Z,99539.63
2023-03-06T18:42:36.019Z,99534.41
2023-03-06T18:44:37.651Z,99548.81
2023-03-06T18:46:39.182Z,99547.38
2023-03-06T18:48:40.612Z,99550.09
2023-03-06T18:50:42.070Z,99540.47
2023-03-06T18:52:43.988Z,99539.91
2023-03-06T18:54:45.589Z,99532.19
2023-03-06T18:56:46.996Z,99547.75
2023-03-06T18:58:49.026Z,99542.53
2023-03-06T19:00:50.680Z,99532.06
2023-03-06T19:02:52.147Z,99550.34
2023-03-06T19:04:53.740Z,99551.53
2023-03-06T19:06:55.418Z,99548.22
2023-03-06T19:08:57.352Z,99550.47
2023-03-06T19:11:05.995Z,99550.25
2023-03-06T19:13:08.625Z,99537.66
2023-03-06T19:15:10.381Z,99534.78
2023-03-06T19:17:11.979Z,99543.38
2023-03-06T19:19:13.664Z,99545.16
2023-03-06T19:21:18.337Z,99544.66
2023-03-06T19:23:20.615Z,99546.81
2023-03-06T19:25:22.075Z,99549.88
2023-03-06T19:27:23.491Z,99533.47
2023-03-06T19:29:25.083Z,99553.16
2023-03-06T19:31:27.780Z,99535.00
2023-03-06T19:33:29.253Z,99545.00
2023-03-06T19:35:30.823Z,99549.13
2023-03-06T19:37:32.616Z,99521.00
2023-03-06T19:39:34.010Z,99551.19
2023-03-06T19:41:35.561Z,99552.81
2023-03-06T19:43:37.531Z,99540.22
2023-03-06T19:45:42.488Z,99547.59
2023-03-06T19:47:44.062Z,99549.00
2023-03-06T19:49:45.622Z,99538.63
2023-03-06T19:51:47.095Z,99535.19
2023-03-06T19:53:48.602Z,99540.19
2023-03-06T19:55:50.075Z,99535.44
2023-03-06T19:57:53.013Z,99556.72
2023-03-06T19:59:54.508Z,99549.75
2023-03-06T20:01:56.034Z,99532.41
2023-03-06T20:03:58.359Z,99537.53
2023-03-06T20:06:03.587Z,99552.34
2023-03-06T20:08:05.216Z,99533.72
2023-03-06T20:10:07.108Z,99545.91
2023-03-06T20:12:08.784Z,99552.94
2023-03-06T20:14:11.683Z,99549.34
2023-03-06T20:16:13.364Z,99544.97
2023-03-06T20:18:15.187Z,99544.81
2023-03-06T20:20:16.681Z,99536.16
2023-03-06T20:22:18.088Z,99550.69
2023-03-06T20:24:19.684Z,99555.91
2023-03-06T20:26:21.262Z,99558.47
2023-03-06T20:28:23.204Z,99551.28
2023-03-06T20:30:26.436Z,99563.78
2023-03-06T20:32:31.053Z,99539.88
2023-03-06T20:34:32.495Z,99545.31
2023-03-06T20:36:39.790Z,99557.06
2023-03-06T20:38:41.287Z,99560.88
2023-03-06T20:40:43.448Z,99562.75
2023-03-06T20:42:44.977Z,99564.56
2023-03-06T20:44:46.405Z,99555.91
2023-03-06T20:46:47.889Z,99560.69
2023-03-06T20:48:51.323Z,99559.78
2023-03-06T20:51:03.135Z,99556.66
2023-03-06T20:53:04.555Z,99565.50
2023-03-06T20:55:06.666Z,99571.53
2023-03-06T20:57:08.346Z,99566.66
2023-03-06T20:59:11.847Z,99568.53
2023-03-06T21:01:26.876Z,99573.75
2023-03-06T21:03:28.487Z,99569.91
2023-03-06T21:05:29.868Z,99576.34
2023-03-06T21:07:31.234Z,99552.63
2023-03-06T21:09:32.742Z,99575.84
2023-03-06T21:11:35.197Z,99570.81
2023-03-06T21:13:36.780Z,99547.59
2023-03-06T21:15:39.674Z,99566.78
2023-03-06T21:17:41.066Z,99562.13
2023-03-06T21:19:42.628Z,99573.81
2023-03-06T21:21:44.301Z,99579.19
2023-03-06T21:23:46.896Z,99576.50
2023-03-06T21:25:50.260Z,99580.88
2023-03-06T21:27:51.884Z,99585.25
2023-03-06T21:29:53.319Z,99583.25
2023-03-06T21:31:54.996Z,99581.59
2023-03-06T21:33:57.221Z,99581.91
2023-03-06T21:35:58.659Z,99579.81
2023-03-06T21:38:00.264Z,99583.69
2023-03-06T21:40:02.036Z,99580.75
2023-03-06T21:42:03.458Z,99587.41
2023-03-06T21:44:06.249Z,99585.34
2023-03-06T21:46:07.879Z,99566.19
2023-03-06T21:48:09.723Z,99595.97
2023-03-06T21:50:11.953Z,99593.78
2023-03-06T21:52:13.542Z,99591.47
2023-03-06T21:54:14.941Z,99579.72
2023-03-06T21:56:18.815Z,99592.31
2023-03-06T21:58:20.437Z,99597.53
2023-03-06T22:00:22.192Z,99587.13
2023-03-06T22:02:23.848Z,99590.16
2023-03-06T22:04:25.520Z,99597.53
2023-03-06T22:06:28.961Z,99584.41
2023-03-06T22:08:30.423Z,99599.78
2023-03-06T22:10:31.887Z,99599.13
2023-03-06T22:12:34.110Z,99578.13
2023-03-06T22:14:35.630Z,99606.13
2023-03-06T22:16:37.126Z,99596.59
2023-03-06T22:18:39.125Z,99606.66
2023-03-06T22:20:40.694Z,99605.06
2023-03-06T22:22:42.266Z,99622.38
2023-03-06T22:24:43.676Z,99589.91
2023-03-06T22:26:45.518Z,99608.09
2023-03-06T22:28:47.012Z,99606.78
2023-03-06T22:30:48.408Z,99621.25
2023-03-06T22:32:52.495Z,99614.13
2023-03-06T22:34:53.994Z,99596.59
2023-03-06T22:36:55.508Z,99619.78
2023-03-06T22:38:59.992Z,99610.19
2023-03-06T22:41:01.663Z,99604.66
2023-03-06T22:43:03.081Z,99614.03
2023-03-06T22:45:04.964Z,99599.41
2023-03-06T22:47:06.537Z,99621.25
2023-03-06T22:49:10.628Z,99620.44
2023-03-06T22:51:15.087Z,99621.38
2023-03-06T22:53:16.681Z,99620.44
2023-03-06T22:55:18.065Z,99619.44
2023-03-06T22:57:19.595Z,99622.41
2023-03-06T22:59:21.092Z,99589.63
2023-03-06T23:01:34.001Z,99612.56
2023-03-06T23:03:37.554Z,99573.63
2023-03-06T23:05:41.642Z,99616.84
2023-03-06T23:07:43.287Z,99590.00
2023-03-06T23:09:44.908Z,99610.44
2023-03-06T23:11:46.928Z,99606.59
2023-03-06T23:13:48.416Z,99604.34
2023-03-06T23:15:50.065Z,99605.06
2023-03-06T23:17:51.602Z,99601.63
2023-03-06T23:19:53.090Z,99607.66
2023-03-06T23:21:54.654Z,99602.03
2023-03-06T23:23:56.566Z,99603.25
2023-03-06T23:26:00.874Z,99610.09
2023-03-06T23:28:03.056Z,99594.44
2023-03-06T23:30:07.879Z,99608.84
2023-03-06T23:32:09.353Z,99600.03
2023-03-06T23:34:10.900Z,99613.13
2023-03-06T23:36:14.490Z,99611.38
2023-03-06T23:38:15.825Z,99619.75
2023-03-06T23:40:17.574Z,99623.88
2023-03-06T23:42:19.220Z,99605.69
2023-03-06T23:44:20.607Z,99631.50
2023-03-06T23:46:22.655Z,99631.69
2023-03-06T23:48:24.494Z,99625.47
2023-03-06T23:50:25.924Z,99622.59
2023-03-06T23:52:27.318Z,99599.63
2023-03-06T23:54:28.802Z,99622.13
2023-03-06T23:56:30.224Z,99625.94
2023-03-06T23:58:32.547Z,99632.25
